createdAt,value
2022-10-11T00:00:58.690Z,69.52
2022-10-11T00:03:35.108Z,69.59
2022-10-11T00:06:05.861Z,69.98
2022-10-11T00:08:34.421Z,69.75
2022-10-11T00:11:06.054Z,69.73
2022-10-11T00:13:35.004Z,69.87
2022-10-11T00:16:08.698Z,69.78
2022-10-11T00:18:36.797Z,70.08
2022-10-11T00:21:08.494Z,69.80
2022-10-11T00:23:37.283Z,70.09
2022-10-11T00:26:07.935Z,70.20
2022-10-11T00:28:36.965Z,69.98
2022-10-11T00:31:10.408Z,70.46
2022-10-11T00:33:38.473Z,70.07
2022-10-11T00:36:08.760Z,70.19
2022-10-11T00:38:37.071Z,70.38
2022-10-11T00:41:05.039Z,70.42
2022-10-11T00:43:34.243Z,70.58
2022-10-11T00:46:08.139Z,70.73
2022-10-11T00:49:04.474Z,70.63
2022-10-11T00:51:35.339Z,70.71
2022-10-11T00:54:03.927Z,70.51
2022-10-11T00:56:36.986Z,70.92
2022-10-11T00:59:12.628Z,71.01
2022-10-11T01:01:40.981Z,70.93
2022-10-11T01:04:08.878Z,71.38
2022-10-11T01:06:36.880Z,71.23
2022-10-11T01:09:04.909Z,71.26
2022-10-11T01:11:42.787Z,71.15
2022-10-11T01:14:47.852Z,71.46
2022-10-11T01:17:21.343Z,71.52
2022-10-11T01:20:09.895Z,71.58
2022-10-11T01:23:16.365Z,71.72
2022-10-11T01:25:49.867Z,71.45
2022-10-11T01:28:25.430Z,71.58
2022-10-11T01:30:57.462Z,71.72
2022-10-11T01:33:48.008Z,71.84
2022-10-11T01:36:34.399Z,71.84
2022-10-11T01:39:04.819Z,71.85
2022-10-11T01:41:39.372Z,71.75
2022-10-11T01:44:09.567Z,72.01
2022-10-11T01:46:37.608Z,71.70
2022-10-11T01:49:05.997Z,72.14
2022-10-11T01:51:38.151Z,72.29
2022-10-11T01:54:13.938Z,72.37
2022-10-11T01:57:07.364Z,72.13
2022-10-11T01:59:57.968Z,72.49
2022-10-11T02:03:03.817Z,72.78
2022-10-11T02:05:48.548Z,72.36
2022-10-11T02:08:50.548Z,72.52
2022-10-11T02:11:29.302Z,72.22
2022-10-11T02:14:25.570Z,72.18
2022-10-11T02:17:04.222Z,72.55
2022-10-11T02:19:38.640Z,72.75
2022-10-11T02:22:10.417Z,72.79
2022-10-11T02:24:42.015Z,72.73
2022-10-11T02:27:11.481Z,72.72
2022-10-11T02:29:43.826Z,72.88
2022-10-11T02:32:12.913Z,73.10
2022-10-11T02:34:47.476Z,73.00
2022-10-11T02:37:26.873Z,72.93
2022-10-11T02:40:01.497Z,73.19
2022-10-11T02:42:36.631Z,72.79
2022-10-11T02:45:34.753Z,73.20
2022-10-11T02:48:03.696Z,73.35
2022-10-11T02:50:31.773Z,73.19
2022-10-11T02:52:59.528Z,73.03
2022-10-11T02:55:27.396Z,73.23
2022-10-11T02:57:55.163Z,73.21
2022-10-11T03:00:23.026Z,73.03
2022-10-11T03:02:50.888Z,73.20
2022-10-11T03:05:18.807Z,73.42
2022-10-11T03:07:46.752Z,73.30
2022-10-11T03:10:14.760Z,73.56
2022-10-11T03:12:42.655Z,73.56
2022-10-11T03:15:10.932Z,73.69
2022-10-11T03:17:38.832Z,74.13
2022-10-11T03:20:07.607Z,73.83
2022-10-11T03:22:35.757Z,74.07
2022-10-11T03:25:04.873Z,73.68
2022-10-11T03:27:34.124Z,74.01
2022-10-11T03:30:02.434Z,74.05
2022-10-11T03:32:30.615Z,74.32
2022-10-11T03:34:58.465Z,74.16
2022-10-11T03:37:27.080Z,74.20
2022-10-11T03:39:54.819Z,74.66
2022-10-11T03:42:22.580Z,74.38
2022-10-11T03:44:52.118Z,74.74
2022-10-11T03:47:20.252Z,74.28
2022-10-11T03:49:48.046Z,74.32
2022-10-11T03:52:15.800Z,74.53
2022-10-11T03:54:43.848Z,74.33
2022-10-11T03:57:11.608Z,74.76
2022-10-11T03:59:39.373Z,74.96
2022-10-11T04:02:07.360Z,74.77
2022-10-11T04:04:35.411Z,74.31
2022-10-11T04:07:03.593Z,74.78
2022-10-11T04:09:31.403Z,74.72
2022-10-11T04:11:59.424Z,74.84
2022-10-11T04:14:27.508Z,75.34
2022-10-11T04:16:59.538Z,75.19
2022-10-11T04:19:28.275Z,74.79
2022-10-11T04:21:56.018Z,75.02
2022-10-11T04:24:23.766Z,75.03
2022-10-11T04:26:51.567Z,74.93
2022-10-11T04:29:19.309Z,75.35
2022-10-11T04:31:47.155Z,75.24
2022-10-11T04:34:15.024Z,75.58
2022-10-11T04:36:45.298Z,75.65
2022-10-11T04:39:17.102Z,75.44
2022-10-11T04:41:45.067Z,75.31
2022-10-11T04:44:12.793Z,75.67
2022-10-11T04:46:40.595Z,76.20
2022-10-11T04:49:08.972Z,76.19
2022-10-11T04:51:36.835Z,76.06
2022-10-11T04:54:04.701Z,75.77
2022-10-11T04:56:32.572Z,75.69
2022-10-11T04:59:00.336Z,75.34
2022-10-11T05:01:28.098Z,76.37
2022-10-11T05:03:55.960Z,76.08
2022-10-11T05:06:24.400Z,76.05
2022-10-11T05:08:52.424Z,76.50
2022-10-11T05:11:20.686Z,76.59
2022-10-11T05:13:48.494Z,76.43
2022-10-11T05:16:16.892Z,76.46
2022-10-11T05:18:45.083Z,76.59
2022-10-11T05:21:20.047Z,76.88
2022-10-11T05:23:49.904Z,76.68
2022-10-11T05:26:19.319Z,77.04
2022-10-11T05:28:48.110Z,76.91
2022-10-11T05:31:16.928Z,76.67
2022-10-11T05:33:45.095Z,77.08
2022-10-11T05:36:13.270Z,76.68
2022-10-11T05:38:41.204Z,77.23
2022-10-11T05:41:09.492Z,77.27
2022-10-11T05:43:37.781Z,77.33
2022-10-11T05:46:06.855Z,77.43
2022-10-11T05:48:35.072Z,77.32
2022-10-11T05:51:05.648Z,77.06
2022-10-11T05:53:33.515Z,77.22
2022-10-11T05:56:01.833Z,77.67
2022-10-11T05:58:29.879Z,77.17
2022-10-11T06:00:57.970Z,77.35
2022-10-11T06:03:25.829Z,77.50
2022-10-11T06:05:56.991Z,77.58
2022-10-11T06:08:25.215Z,77.51
2022-10-11T06:10:53.121Z,77.64
2022-10-11T06:13:20.876Z,77.80
2022-10-11T06:15:48.756Z,77.65
2022-10-11T06:18:16.528Z,77.77
2022-10-11T06:20:44.269Z,77.92
2022-10-11T06:23:12.346Z,77.94
2022-10-11T06:25:40.424Z,78.08
2022-10-11T06:28:08.243Z,78.30
2022-10-11T06:30:36.140Z,78.46
2022-10-11T06:33:05.060Z,78.52
2022-10-11T06:35:33.001Z,78.51
2022-10-11T06:38:00.781Z,78.55
2022-10-11T06:40:28.534Z,78.62
2022-10-11T06:42:56.495Z,78.58
2022-10-11T06:45:24.356Z,78.46
2022-10-11T06:47:52.124Z,78.57
2022-10-11T06:50:34.799Z,78.33
2022-10-11T06:53:08.485Z,78.34
2022-10-11T06:55:36.301Z,78.54
2022-10-11T06:58:04.167Z,78.61
2022-10-11T07:00:32.027Z,78.60
2022-10-11T07:03:00.567Z,78.45
2022-10-11T07:05:29.707Z,78.53
2022-10-11T07:07:57.434Z,78.56
2022-10-11T07:10:25.208Z,78.69
2022-10-11T07:12:53.242Z,78.52
2022-10-11T07:15:21.285Z,78.78
2022-10-11T07:17:49.013Z,78.80
2022-10-11T07:20:16.847Z,78.70
2022-10-11T07:22:44.565Z,78.62
2022-10-11T07:25:12.334Z,78.61
2022-10-11T07:27:40.091Z,78.66
2022-10-11T07:30:08.376Z,78.63
2022-10-11T07:32:36.097Z,78.73
2022-10-11T07:35:04.150Z,78.76
2022-10-11T07:37:33.250Z,78.73
2022-10-11T07:40:01.273Z,78.74
2022-10-11T07:42:29.024Z,78.63
2022-10-11T07:44:57.095Z,78.52
2022-10-11T07:47:24.863Z,78.64
2022-10-11T07:49:52.981Z,78.39
2022-10-11T07:52:20.739Z,78.60
2022-10-11T07:54:49.646Z,78.42
2022-10-11T07:57:17.445Z,78.39
2022-10-11T07:59:50.004Z,78.35
2022-10-11T08:02:18.192Z,78.32
2022-10-11T08:04:45.961Z,78.33
2022-10-11T08:07:14.033Z,78.25
2022-10-11T08:09:41.789Z,78.11
2022-10-11T08:12:10.154Z,78.17
2022-10-11T08:14:37.983Z,78.17
2022-10-11T08:17:05.773Z,78.10
2022-10-11T08:19:34.112Z,78.08
2022-10-11T08:22:02.055Z,78.13
2022-10-11T08:24:31.064Z,77.93
2022-10-11T08:27:01.362Z,77.86
2022-10-11T08:29:29.322Z,77.60
2022-10-11T08:31:57.198Z,77.83
2022-10-11T08:34:25.267Z,77.77
2022-10-11T08:36:53.130Z,77.88
2022-10-11T08:39:21.440Z,77.79
2022-10-11T08:42:02.373Z,77.66
2022-10-11T08:45:10.052Z,77.48
2022-10-11T08:47:42.322Z,77.21
2022-10-11T08:50:20.547Z,77.04
2022-10-11T08:52:53.899Z,76.97
2022-10-11T08:55:45.157Z,77.15
2022-10-11T08:58:16.626Z,77.12
2022-10-11T09:00:47.085Z,76.75
2022-10-11T09:03:38.157Z,76.49
2022-10-11T09:06:21.572Z,76.27
2022-10-11T09:09:20.722Z,76.51
2022-10-11T09:11:51.194Z,76.46
2022-10-11T09:14:40.419Z,76.51
2022-10-11T09:17:32.598Z,76.42
2022-10-11T09:20:30.364Z,76.30
2022-10-11T09:23:28.536Z,76.37
2022-10-11T09:26:05.536Z,76.18
2022-10-11T09:28:41.984Z,76.08
2022-10-11T09:31:11.696Z,75.89
2022-10-11T09:33:45.395Z,75.79
2022-10-11T09:36:28.557Z,75.64
2022-10-11T09:39:06.481Z,75.07
2022-10-11T09:41:59.269Z,74.90
2022-10-11T09:44:35.536Z,74.36
2022-10-11T09:47:04.934Z,74.58
2022-10-11T09:49:42.839Z,74.71
2022-10-11T09:52:20.121Z,74.29
2022-10-11T09:54:51.571Z,74.56
2022-10-11T09:57:29.895Z,74.43
2022-10-11T10:00:02.296Z,74.09
2022-10-11T10:02:39.241Z,74.01
2022-10-11T10:05:07.202Z,73.85
2022-10-11T10:07:36.298Z,73.58
2022-10-11T10:10:41.607Z,73.39
2022-10-11T10:13:29.254Z,72.94
2022-10-11T10:16:00.216Z,72.91
2022-10-11T10:18:36.402Z,72.58
2022-10-11T10:21:11.977Z,72.45
2022-10-11T10:23:45.375Z,72.55
2022-10-11T10:26:21.498Z,71.90
2022-10-11T10:29:11.460Z,72.03
2022-10-11T10:32:13.891Z,71.25
2022-10-11T10:35:08.422Z,70.86
2022-10-11T10:37:54.501Z,69.85
2022-10-11T10:40:43.910Z,69.55
2022-10-11T10:43:20.707Z,68.23
2022-10-11T10:46:10.671Z,68.02
2022-10-11T10:49:41.250Z,67.93
2022-10-11T10:55:17.059Z,66.51
2022-10-11T10:58:15.084Z,66.92
2022-10-11T11:01:03.389Z,66.31
2022-10-11T11:03:49.993Z,66.06
2022-10-11T11:06:39.478Z,65.79
2022-10-11T11:09:42.449Z,65.49
2022-10-11T11:12:27.169Z,65.05
2022-10-11T11:15:07.350Z,64.91
2022-10-11T11:18:02.198Z,64.72
2022-10-11T11:20:44.079Z,63.97
2022-10-11T11:23:29.370Z,63.89
2022-10-11T11:26:27.356Z,63.81
2022-10-11T11:29:18.007Z,63.47
2022-10-11T11:31:59.456Z,63.50
2022-10-11T11:34:49.854Z,63.03
2022-10-11T11:37:32.875Z,62.45
2022-10-11T11:40:16.773Z,61.98
2022-10-11T11:43:00.798Z,60.87
2022-10-11T11:45:49.151Z,59.76
2022-10-11T11:48:26.898Z,60.91
2022-10-11T11:51:16.219Z,60.93
2022-10-11T11:54:29.724Z,60.90
2022-10-11T11:57:29.621Z,59.08
2022-10-11T12:00:06.510Z,58.04
2022-10-11T12:03:04.197Z,57.80
2022-10-11T12:05:36.904Z,57.31
2022-10-11T12:08:28.021Z,57.04
2022-10-11T12:11:20.499Z,57.17
2022-10-11T12:14:00.954Z,57.42
2022-10-11T12:16:32.687Z,57.01
2022-10-11T12:19:30.455Z,57.09
2022-10-11T12:22:40.716Z,57.08
2022-10-11T12:28:53.131Z,54.79
2022-10-11T12:31:34.799Z,56.00
2022-10-11T12:34:13.055Z,55.34
2022-10-11T12:36:48.087Z,55.77
2022-10-11T12:39:26.500Z,55.65
2022-10-11T12:42:19.497Z,55.29
2022-10-11T12:45:15.367Z,55.17
2022-10-11T12:48:08.006Z,55.32
2022-10-11T12:51:05.288Z,55.19
2022-10-11T12:53:33.791Z,55.27
2022-10-11T12:56:19.819Z,55.02
2022-10-11T12:58:50.633Z,54.42
2022-10-11T13:01:46.233Z,54.28
2022-10-11T13:04:40.677Z,53.89
2022-10-11T13:07:25.964Z,54.38
2022-10-11T13:09:56.106Z,53.95
2022-10-11T13:12:48.832Z,53.78
2022-10-11T13:15:26.177Z,53.76
2022-10-11T13:18:07.279Z,53.41
2022-10-11T13:20:42.630Z,52.92
2022-10-11T13:23:30.487Z,53.55
2022-10-11T13:26:05.690Z,53.49
2022-10-11T13:29:01.741Z,53.18
2022-10-11T13:31:43.762Z,53.13
2022-10-11T13:34:23.055Z,52.34
2022-10-11T13:37:01.755Z,52.75
2022-10-11T13:39:42.084Z,52.93
2022-10-11T13:42:16.537Z,52.71
2022-10-11T13:44:47.156Z,52.07
2022-10-11T13:47:18.842Z,51.71
2022-10-11T13:49:53.357Z,51.26
2022-10-11T13:52:24.237Z,51.64
2022-10-11T13:55:11.614Z,51.87
2022-10-11T13:57:45.511Z,51.54
2022-10-11T14:00:16.649Z,51.57
2022-10-11T14:03:01.817Z,51.89
2022-10-11T14:05:29.989Z,51.76
2022-10-11T14:08:02.052Z,50.98
2022-10-11T14:10:30.328Z,51.55
2022-10-11T14:13:23.929Z,51.60
2022-10-11T14:16:29.134Z,51.52
2022-10-11T14:19:00.381Z,51.72
2022-10-11T14:21:28.168Z,51.74
2022-10-11T14:23:59.798Z,52.01
2022-10-11T14:26:35.694Z,52.23
2022-10-11T14:29:27.172Z,52.18
2022-10-11T14:32:08.428Z,52.39
2022-10-11T14:34:37.033Z,52.42
2022-10-11T14:37:05.310Z,52.48
2022-10-11T14:39:33.686Z,52.65
2022-10-11T14:42:01.859Z,52.91
2022-10-11T14:44:29.724Z,52.95
2022-10-11T14:46:57.490Z,52.88
2022-10-11T14:49:30.704Z,52.83
2022-10-11T14:51:59.284Z,52.91
2022-10-11T14:54:29.001Z,53.00
2022-10-11T14:56:59.501Z,53.09
2022-10-11T14:59:34.658Z,53.07
2022-10-11T15:02:04.305Z,53.49
2022-10-11T15:04:32.214Z,53.57
2022-10-11T15:07:00.105Z,53.72
2022-10-11T15:09:28.349Z,54.06
2022-10-11T15:11:57.102Z,54.10
2022-10-11T15:14:25.793Z,54.36
2022-10-11T15:16:55.019Z,54.61
2022-10-11T15:19:25.075Z,54.51
2022-10-11T15:21:53.007Z,54.99
2022-10-11T15:24:20.934Z,54.98
2022-10-11T15:26:49.251Z,55.02
2022-10-11T15:29:18.058Z,55.07
2022-10-11T15:31:46.714Z,55.42
2022-10-11T15:34:14.697Z,55.27
2022-10-11T15:36:42.654Z,55.61
2022-10-11T15:39:43.084Z,55.72
2022-10-11T15:42:10.873Z,56.22
2022-10-11T15:44:38.658Z,56.28
2022-10-11T15:47:06.474Z,56.25
2022-10-11T15:49:34.209Z,56.15
2022-10-11T15:52:02.101Z,56.39
2022-10-11T15:54:30.480Z,56.44
2022-10-11T15:56:58.960Z,56.58
2022-10-11T15:59:27.030Z,57.16
2022-10-11T16:01:54.944Z,57.40
2022-10-11T16:04:22.773Z,57.41
2022-10-11T16:06:50.487Z,57.65
2022-10-11T16:09:18.217Z,57.42
2022-10-11T16:11:46.028Z,57.49
2022-10-11T16:14:13.771Z,58.15
2022-10-11T16:16:41.523Z,58.21
2022-10-11T16:19:09.646Z,58.23
2022-10-11T16:21:37.415Z,58.54
2022-10-11T16:24:05.375Z,58.37
2022-10-11T16:26:33.360Z,58.74
2022-10-11T16:29:01.236Z,58.90
2022-10-11T16:31:29.204Z,59.19
2022-10-11T16:33:57.864Z,59.35
2022-10-11T16:36:40.846Z,59.21
2022-10-11T16:39:13.760Z,60.13
2022-10-11T16:41:42.848Z,60.14
2022-10-11T16:44:15.684Z,60.00
2022-10-11T16:46:48.150Z,59.84
2022-10-11T16:49:18.656Z,60.47
2022-10-11T16:51:46.400Z,60.37
2022-10-11T16:54:19.300Z,60.21
2022-10-11T16:56:49.691Z,60.59
2022-10-11T16:59:17.901Z,60.81
2022-10-11T17:01:46.479Z,61.01
2022-10-11T17:04:14.964Z,60.99
2022-10-11T17:06:44.249Z,61.23
2022-10-11T17:09:12.320Z,61.52
2022-10-11T17:11:40.900Z,61.68
2022-10-11T17:14:10.612Z,62.19
2022-10-11T17:16:38.475Z,62.37
2022-10-11T17:19:09.908Z,62.41
2022-10-11T17:21:38.653Z,62.53
2022-10-11T17:24:07.461Z,62.77
2022-10-11T17:26:35.276Z,62.88
2022-10-11T17:29:03.069Z,62.61
2022-10-11T17:31:31.098Z,62.91
2022-10-11T17:34:00.725Z,63.17
2022-10-11T17:36:32.062Z,63.31
2022-10-11T17:39:04.736Z,63.46
2022-10-11T17:41:32.586Z,63.39
2022-10-11T17:44:01.872Z,63.43
2022-10-11T17:46:32.873Z,63.50
2022-10-11T17:49:04.928Z,63.58
2022-10-11T17:51:35.084Z,64.15
2022-10-11T17:54:03.989Z,63.70
2022-10-11T17:56:37.438Z,63.99
2022-10-11T17:59:06.724Z,64.39
2022-10-11T18:01:35.065Z,64.91
2022-10-11T18:04:05.039Z,64.64
2022-10-11T18:06:38.884Z,64.76
2022-10-11T18:09:06.978Z,64.79
2022-10-11T18:11:35.481Z,65.02
2022-10-11T18:14:04.595Z,65.33
2022-10-11T18:16:33.130Z,65.44
2022-10-11T18:19:03.969Z,65.23
2022-10-11T18:21:34.500Z,65.42
2022-10-11T18:24:05.091Z,65.94
2022-10-11T18:26:32.882Z,65.33
2022-10-11T18:29:00.917Z,65.79
2022-10-11T18:31:30.531Z,65.85
2022-10-11T18:33:58.353Z,65.80
2022-10-11T18:36:29.336Z,66.27
2022-10-11T18:38:59.989Z,66.13
2022-10-11T18:41:31.717Z,66.36
2022-10-11T18:44:05.078Z,66.21
2022-10-11T18:46:33.619Z,66.58
2022-10-11T18:49:02.320Z,66.44
2022-10-11T18:51:33.937Z,66.53
2022-10-11T18:54:02.469Z,66.91
2022-10-11T18:56:32.495Z,66.80
2022-10-11T18:59:00.318Z,66.76
2022-10-11T19:01:31.172Z,66.84
2022-10-11T19:04:00.396Z,67.16
2022-10-11T19:06:31.772Z,67.14
2022-10-11T19:09:11.783Z,67.02
2022-10-11T19:11:40.563Z,67.35
2022-10-11T19:14:14.890Z,67.29
2022-10-11T19:16:51.690Z,67.48
2022-10-11T19:19:22.583Z,67.65
2022-10-11T19:21:50.667Z,67.38
2022-10-11T19:24:21.127Z,67.68
2022-10-11T19:26:50.515Z,67.63
2022-10-11T19:29:20.089Z,67.95
2022-10-11T19:31:56.405Z,67.84
2022-10-11T19:34:30.038Z,68.09
2022-10-11T19:37:00.839Z,68.09
2022-10-11T19:39:29.782Z,68.21
2022-10-11T19:41:57.645Z,68.00
2022-10-11T19:44:25.427Z,68.31
2022-10-11T19:46:53.408Z,68.34
2022-10-11T19:49:25.061Z,68.42
2022-10-11T19:51:53.884Z,68.51
2022-10-11T19:54:22.410Z,68.57
2022-10-11T19:56:50.551Z,68.61
2022-10-11T19:59:18.970Z,68.74
2022-10-11T20:01:52.354Z,68.91
2022-10-11T20:07:09.598Z,69.30
2022-10-11T20:09:37.367Z,69.07
2022-10-11T20:12:05.807Z,69.18
2022-10-11T20:14:33.658Z,69.36
2022-10-11T20:17:01.382Z,69.51
2022-10-11T20:19:31.211Z,69.50
2022-10-11T20:22:01.182Z,69.44
2022-10-11T20:24:33.488Z,69.81
2022-10-11T20:27:06.598Z,69.52
2022-10-11T20:29:34.879Z,69.55
2022-10-11T20:32:02.934Z,69.71
2022-10-11T20:34:31.176Z,69.94
2022-10-11T20:36:59.319Z,69.37
2022-10-11T20:39:27.279Z,69.36
2022-10-11T20:41:55.142Z,69.92
2022-10-11T20:44:23.216Z,69.29
2022-10-11T20:46:51.397Z,69.58
2022-10-11T20:49:20.162Z,70.03
2022-10-11T20:51:48.511Z,69.86
2022-10-11T20:54:16.931Z,70.04
2022-10-11T20:56:44.793Z,70.04
2022-10-11T20:59:12.692Z,70.15
2022-10-11T21:01:41.838Z,70.56
2022-10-11T21:04:17.917Z,70.29
2022-10-11T21:06:47.345Z,70.54
2022-10-11T21:09:17.037Z,70.29
2022-10-11T21:11:45.015Z,70.81
2022-10-11T21:14:12.915Z,70.89
2022-10-11T21:16:40.700Z,70.82
2022-10-11T21:19:13.396Z,71.21
2022-10-11T21:21:41.577Z,70.53
2022-10-11T21:24:09.850Z,70.72
2022-10-11T21:26:37.656Z,71.15
2022-10-11T21:29:05.618Z,70.63
2022-10-11T21:31:34.570Z,71.24
2022-10-11T21:34:05.406Z,71.17
2022-10-11T21:36:33.753Z,71.06
2022-10-11T21:39:01.658Z,71.26
2022-10-11T21:41:34.134Z,71.61
2022-10-11T21:44:01.995Z,71.15
2022-10-11T21:47:01.163Z,70.84
2022-10-11T21:49:20.136Z,71.46
2022-10-11T21:51:48.630Z,71.38
2022-10-11T21:54:17.029Z,71.28
2022-10-11T21:56:44.877Z,71.42
2022-10-11T21:59:12.921Z,71.44
2022-10-11T22:01:42.065Z,71.50
2022-10-11T22:04:11.168Z,71.12
2022-10-11T22:06:39.733Z,71.49
2022-10-11T22:09:08.689Z,71.88
2022-10-11T22:11:37.642Z,71.51
2022-10-11T22:14:06.000Z,71.42
2022-10-11T22:16:35.230Z,71.35
2022-10-11T22:19:03.651Z,71.88
2022-10-11T22:21:32.131Z,71.62
2022-10-11T22:24:00.257Z,71.50
2022-10-11T22:26:30.817Z,71.96
2022-10-11T22:29:00.246Z,71.99
2022-10-11T22:31:29.336Z,72.01
2022-10-11T22:33:59.247Z,72.37
2022-10-11T22:36:30.750Z,72.17
2022-10-11T22:38:59.067Z,72.50
2022-10-11T22:41:27.043Z,72.31
2022-10-11T22:43:54.797Z,72.17
2022-10-11T22:46:22.630Z,72.35
2022-10-11T22:48:50.386Z,72.41
2022-10-11T22:51:18.176Z,72.35
2022-10-11T22:53:46.057Z,72.53
2022-10-11T22:56:14.253Z,72.50
2022-10-11T22:58:42.125Z,72.72
2022-10-11T23:01:12.532Z,72.28
2022-10-11T23:03:40.474Z,72.58
2022-10-11T23:06:09.044Z,72.48
2022-10-11T23:08:36.831Z,72.44
2022-10-11T23:11:06.658Z,72.92
2022-10-11T23:13:35.234Z,72.80
2022-10-11T23:16:11.802Z,72.51
2022-10-11T23:18:39.765Z,72.94
2022-10-11T23:21:08.555Z,73.07
2022-10-11T23:23:36.620Z,73.03
2022-10-11T23:26:07.661Z,72.79
2022-10-11T23:28:36.226Z,73.15
2022-10-11T23:31:12.729Z,73.16
2022-10-11T23:33:41.073Z,73.36
2022-10-11T23:36:17.745Z,73.37
2022-10-11T23:38:50.651Z,73.05
2022-10-11T23:41:18.610Z,73.57
2022-10-11T23:43:46.580Z,73.21
2022-10-11T23:46:14.452Z,73.40
2022-10-11T23:48:42.412Z,73.44
2022-10-11T23:51:10.689Z,73.31
2022-10-11T23:53:38.553Z,73.38
2022-10-11T23:56:07.433Z,73.44
2022-10-11T23:58:35.420Z,73.32
